createdAt,value
2023-05-01T00:01:13.622Z,3.88
2023-05-01T00:03:41.360Z,6.43
2023-05-01T00:06:09.538Z,8.38
2023-05-01T00:08:37.199Z,5.93
2023-05-01T00:11:05.339Z,6.53
2023-05-01T00:13:33.944Z,4.65
2023-05-01T00:16:01.752Z,5.53
2023-05-01T00:18:31.200Z,10.83
2023-05-01T00:20:58.971Z,4.63
2023-05-01T00:23:26.730Z,4.10
2023-05-01T00:25:54.600Z,6.25
2023-05-01T00:28:22.327Z,4.67
2023-05-01T00:30:50.038Z,12.43
2023-05-01T00:33:17.724Z,8.27
2023-05-01T00:35:45.862Z,8.27
2023-05-01T00:38:13.699Z,5.95
2023-05-01T00:40:45.577Z,6.63
2023-05-01T00:43:14.883Z,8.27
2023-05-01T00:45:43.932Z,5.72
2023-05-01T00:48:11.763Z,5.70
2023-05-01T00:50:39.521Z,6.80
2023-05-01T00:53:07.260Z,7.67
2023-05-01T00:55:35.981Z,7.43
2023-05-01T00:58:03.681Z,8.38
2023-05-01T01:00:31.427Z,4.53
2023-05-01T01:02:59.128Z,5.13
2023-05-01T01:05:27.682Z,7.20
2023-05-01T01:08:14.092Z,6.87
2023-05-01T01:10:50.562Z,9.63
2023-05-01T01:13:31.357Z,4.60
2023-05-01T01:16:07.345Z,8.25
2023-05-01T01:18:58.094Z,9.13
2023-05-01T01:21:29.077Z,11.38
2023-05-01T01:24:15.314Z,4.43
2023-05-01T01:26:53.464Z,6.53
2023-05-01T01:29:39.188Z,6.57
2023-05-01T01:32:06.828Z,5.93
2023-05-01T01:34:35.683Z,9.53
2023-05-01T01:37:04.847Z,5.55
2023-05-01T01:39:47.167Z,5.25
2023-05-01T01:42:16.661Z,6.82
2023-05-01T01:44:45.846Z,5.33
2023-05-01T01:47:13.529Z,6.55
2023-05-01T01:49:41.794Z,5.72
2023-05-01T01:52:09.380Z,7.23
2023-05-01T01:54:38.877Z,8.45
2023-05-01T01:57:07.927Z,5.30
2023-05-01T01:59:35.629Z,10.17
2023-05-01T02:02:03.621Z,5.13
2023-05-01T02:04:31.330Z,8.25
2023-05-01T02:06:59.082Z,6.47
2023-05-01T02:09:27.204Z,5.80
2023-05-01T02:11:56.078Z,10.05
2023-05-01T02:14:23.994Z,4.53
2023-05-01T02:16:51.588Z,9.00
2023-05-01T02:19:19.252Z,5.95
2023-05-01T02:21:46.938Z,4.82
2023-05-01T02:24:14.591Z,7.40
2023-05-01T02:26:46.100Z,8.82
2023-05-01T02:29:13.622Z,7.90
2023-05-01T02:31:41.501Z,6.03
2023-05-01T02:34:09.157Z,4.93
2023-05-01T02:36:36.735Z,5.00
2023-05-01T02:39:04.569Z,3.55
2023-05-01T02:41:32.259Z,4.20
2023-05-01T02:44:01.938Z,6.75
2023-05-01T02:46:29.572Z,8.23
2023-05-01T02:48:57.154Z,4.80
2023-05-01T02:51:24.694Z,7.05
2023-05-01T02:53:52.262Z,4.47
2023-05-01T02:56:19.844Z,4.68
2023-05-01T02:58:49.601Z,5.70
2023-05-01T03:01:17.453Z,7.90
2023-05-01T03:03:45.038Z,7.43
2023-05-01T03:06:14.466Z,5.67
2023-05-01T03:08:42.339Z,5.82
2023-05-01T03:11:10.008Z,7.68
2023-05-01T03:13:37.728Z,5.30
2023-05-01T03:16:06.424Z,5.40
2023-05-01T03:18:34.255Z,9.52
2023-05-01T03:21:01.858Z,6.93
2023-05-01T03:23:29.400Z,5.23
2023-05-01T03:25:57.611Z,8.30
2023-05-01T03:28:25.410Z,6.20
2023-05-01T03:30:53.161Z,6.10
2023-05-01T03:33:20.702Z,8.52
2023-05-01T03:35:48.725Z,8.43
2023-05-01T03:38:16.475Z,7.13
2023-05-01T03:40:44.469Z,5.47
2023-05-01T03:43:12.018Z,5.03
2023-05-01T03:45:39.751Z,8.43
2023-05-01T03:48:07.393Z,4.00
2023-05-01T03:50:35.124Z,6.85
2023-05-01T03:53:02.721Z,6.30
2023-05-01T03:55:30.654Z,8.03
2023-05-01T03:57:58.793Z,5.72
2023-05-01T04:00:27.654Z,5.55
2023-05-01T04:02:56.941Z,6.63
2023-05-01T04:05:24.765Z,6.57
2023-05-01T04:07:52.481Z,6.60
2023-05-01T04:10:20.095Z,6.93
2023-05-01T04:12:47.667Z,5.57
2023-05-01T04:15:15.726Z,7.20
2023-05-01T04:17:46.988Z,6.47
2023-05-01T04:20:16.634Z,5.07
2023-05-01T04:22:44.235Z,5.03
2023-05-01T04:25:11.976Z,4.75
2023-05-01T04:27:39.543Z,9.77
2023-05-01T04:30:07.632Z,5.97
2023-05-01T04:32:35.725Z,9.75
2023-05-01T04:35:04.911Z,8.60
2023-05-01T04:37:32.487Z,8.27
2023-05-01T04:40:00.975Z,5.07
2023-05-01T04:42:34.384Z,8.93
2023-05-01T04:45:04.356Z,4.73
2023-05-01T04:47:32.032Z,9.95
2023-05-01T04:49:59.650Z,6.68
2023-05-01T04:52:27.219Z,5.07
2023-05-01T04:54:54.784Z,5.25
2023-05-01T04:57:22.465Z,5.97
2023-05-01T04:59:50.198Z,6.13
2023-05-01T05:02:19.464Z,8.43
2023-05-01T05:04:47.163Z,5.80
2023-05-01T05:07:14.809Z,10.50
2023-05-01T05:09:42.439Z,5.83
2023-05-01T05:12:10.088Z,10.48
2023-05-01T05:14:37.614Z,7.70
2023-05-01T05:17:06.370Z,6.87
2023-05-01T05:19:34.400Z,8.85
2023-05-01T05:22:04.807Z,5.25
2023-05-01T05:24:32.701Z,6.68
2023-05-01T05:27:00.498Z,9.53
2023-05-01T05:29:28.067Z,6.28
2023-05-01T05:31:57.824Z,6.80
2023-05-01T05:34:25.617Z,7.77
2023-05-01T05:36:53.150Z,10.95
2023-05-01T05:39:23.745Z,6.28
2023-05-01T05:41:53.879Z,8.90
2023-05-01T05:44:21.548Z,8.27
2023-05-01T05:46:49.098Z,8.00
2023-05-01T05:49:16.721Z,8.00
2023-05-01T05:51:44.230Z,7.17
2023-05-01T05:54:11.822Z,10.60
2023-05-01T05:56:39.323Z,15.15
2023-05-01T05:59:07.095Z,6.13
2023-05-01T06:01:34.680Z,12.63
2023-05-01T06:04:02.275Z,9.02
2023-05-01T06:06:30.102Z,7.77
2023-05-01T06:08:57.962Z,10.30
2023-05-01T06:11:26.154Z,9.02
2023-05-01T06:13:54.491Z,9.55
2023-05-01T06:16:22.413Z,5.83
2023-05-01T06:18:49.917Z,10.77
2023-05-01T06:21:17.606Z,9.77
2023-05-01T06:23:45.160Z,7.93
2023-05-01T06:26:12.914Z,7.15
2023-05-01T06:28:40.637Z,6.88
2023-05-01T06:31:08.328Z,9.63
2023-05-01T06:33:35.846Z,4.97
2023-05-01T06:36:03.408Z,10.43
2023-05-01T06:38:32.938Z,8.63
2023-05-01T06:41:00.539Z,9.67
2023-05-01T06:43:30.700Z,10.00
2023-05-01T06:45:58.468Z,9.98
2023-05-01T06:48:26.037Z,9.93
2023-05-01T06:50:53.599Z,10.18
2023-05-01T06:53:21.169Z,7.60
2023-05-01T06:55:48.710Z,6.97
2023-05-01T06:58:24.029Z,9.27
2023-05-01T07:00:52.254Z,8.88
2023-05-01T07:03:19.970Z,9.68
2023-05-01T07:05:47.562Z,6.50
2023-05-01T07:08:15.231Z,5.20
2023-05-01T07:10:42.851Z,8.90
2023-05-01T07:13:10.439Z,5.77
2023-05-01T07:15:38.146Z,12.63
2023-05-01T07:18:06.357Z,5.72
2023-05-01T07:20:34.980Z,6.33
2023-05-01T07:23:03.844Z,8.07
2023-05-01T07:25:32.568Z,8.68
2023-05-01T07:28:01.910Z,5.80
2023-05-01T07:30:30.551Z,6.97
2023-05-01T07:32:59.049Z,7.30
2023-05-01T07:35:26.648Z,7.15
2023-05-01T07:37:55.146Z,9.87
2023-05-01T07:40:22.712Z,9.23
2023-05-01T07:42:52.353Z,8.30
2023-05-01T07:45:21.413Z,7.80
2023-05-01T07:47:49.729Z,7.20
2023-05-01T07:50:17.501Z,6.75
2023-05-01T07:52:45.541Z,7.38
2023-05-01T07:55:13.250Z,9.50
2023-05-01T07:57:40.845Z,8.10
2023-05-01T08:00:08.956Z,10.60
2023-05-01T08:02:37.727Z,7.87
2023-05-01T08:05:05.617Z,8.13
2023-05-01T08:07:33.228Z,10.57
2023-05-01T08:10:01.267Z,6.95
2023-05-01T08:12:29.854Z,7.40
2023-05-01T08:14:57.382Z,6.68
2023-05-01T08:17:25.094Z,5.00
2023-05-01T08:19:56.718Z,6.53
2023-05-01T08:22:24.812Z,11.75
2023-05-01T08:24:53.313Z,8.77
2023-05-01T08:27:20.908Z,4.87
2023-05-01T08:29:48.413Z,11.85
2023-05-01T08:32:16.266Z,5.07
2023-05-01T08:34:43.828Z,8.23
2023-05-01T08:37:11.475Z,7.05
2023-05-01T08:39:39.003Z,5.65
2023-05-01T08:42:06.716Z,5.07
2023-05-01T08:44:34.222Z,6.73
2023-05-01T08:47:08.413Z,5.18
2023-05-01T08:49:36.322Z,5.85
2023-05-01T08:52:06.668Z,5.67
2023-05-01T08:54:35.028Z,7.28
2023-05-01T08:57:03.772Z,6.88
2023-05-01T08:59:37.388Z,9.93
2023-05-01T09:02:05.963Z,5.03
2023-05-01T09:04:34.062Z,4.65
2023-05-01T09:07:02.184Z,5.30
2023-05-01T09:09:30.070Z,5.33
2023-05-01T09:11:58.315Z,6.03
2023-05-01T09:14:26.100Z,7.22
2023-05-01T09:16:56.993Z,7.63
2023-05-01T09:19:24.568Z,8.07
2023-05-01T09:21:52.137Z,6.10
2023-05-01T09:24:19.686Z,7.05
2023-05-01T09:26:50.198Z,2.83
2023-05-01T09:29:38.223Z,3.92
2023-05-01T09:32:20.641Z,7.10
2023-05-01T09:34:49.293Z,4.03
2023-05-01T09:37:32.663Z,4.70
2023-05-01T09:40:12.852Z,4.57
2023-05-01T09:42:49.294Z,4.82
2023-05-01T09:45:17.010Z,5.90
2023-05-01T09:47:44.917Z,5.15
2023-05-01T09:50:13.900Z,8.05
2023-05-01T09:52:41.527Z,4.00
2023-05-01T09:55:19.164Z,3.03
2023-05-01T09:57:47.182Z,7.95
2023-05-01T10:00:15.574Z,3.15
2023-05-01T10:02:44.411Z,3.35
2023-05-01T10:05:12.313Z,8.27
2023-05-01T10:07:40.026Z,3.28
2023-05-01T10:10:20.446Z,7.80
2023-05-01T10:12:48.126Z,5.75
2023-05-01T10:15:24.731Z,5.90
2023-05-01T10:17:54.382Z,8.97
2023-05-01T10:20:22.510Z,5.20
2023-05-01T10:22:50.548Z,6.05
2023-05-01T10:25:18.236Z,5.88
2023-05-01T10:27:46.146Z,10.13
2023-05-01T10:30:13.862Z,3.47
2023-05-01T10:32:42.511Z,7.10
2023-05-01T10:35:14.952Z,5.43
2023-05-01T10:37:47.574Z,5.15
2023-05-01T10:40:33.681Z,5.53
2023-05-01T10:43:13.960Z,5.57
2023-05-01T10:45:41.621Z,3.72
2023-05-01T10:48:09.804Z,5.18
2023-05-01T10:50:57.781Z,3.45
2023-05-01T10:53:28.227Z,3.38
2023-05-01T10:55:55.988Z,4.00
2023-05-01T10:58:38.882Z,1.95
2023-05-01T11:01:25.019Z,5.43
2023-05-01T11:03:54.987Z,4.75
2023-05-01T11:06:25.897Z,3.35
2023-05-01T11:08:53.772Z,5.27
2023-05-01T11:11:21.545Z,3.22
2023-05-01T11:13:58.077Z,3.63
2023-05-01T11:16:42.118Z,6.18
2023-05-01T11:19:11.815Z,4.63
2023-05-01T11:21:42.233Z,4.03
2023-05-01T11:24:10.146Z,3.70
2023-05-01T11:26:42.390Z,3.33
2023-05-01T11:29:10.890Z,1.70
2023-05-01T11:31:38.904Z,1.30
2023-05-01T11:34:09.404Z,4.30
2023-05-01T11:36:49.641Z,2.80
2023-05-01T11:39:17.879Z,4.25
2023-05-01T11:41:45.650Z,4.53
2023-05-01T11:44:13.930Z,3.33
2023-05-01T11:46:41.621Z,3.53
2023-05-01T11:49:09.696Z,4.53
2023-05-01T11:51:37.352Z,4.03
2023-05-01T11:54:09.605Z,4.65
2023-05-01T11:56:37.861Z,3.78
2023-05-01T11:59:12.278Z,4.03
2023-05-01T12:01:44.503Z,5.47
2023-05-01T12:04:12.522Z,4.38
2023-05-01T12:06:46.694Z,3.80
2023-05-01T12:09:20.355Z,4.43
2023-05-01T12:11:51.193Z,8.07
2023-05-01T12:14:20.086Z,10.95
2023-05-01T12:16:47.608Z,6.50
2023-05-01T12:19:15.584Z,8.73
2023-05-01T12:21:43.206Z,6.65
2023-05-01T12:24:16.182Z,11.77
2023-05-01T12:26:44.259Z,5.78
2023-05-01T12:29:11.939Z,6.45
2023-05-01T12:31:49.195Z,8.77
2023-05-01T12:34:16.956Z,5.28
2023-05-01T12:36:46.912Z,6.00
2023-05-01T12:39:14.732Z,5.00
2023-05-01T12:41:49.068Z,5.17
2023-05-01T12:44:20.182Z,3.80
2023-05-01T12:46:53.923Z,4.32
2023-05-01T12:49:21.835Z,5.17
2023-05-01T12:51:49.816Z,5.53
2023-05-01T12:54:23.688Z,4.10
2023-05-01T12:56:53.503Z,4.95
2023-05-01T12:59:24.428Z,4.95
2023-05-01T13:02:01.121Z,4.05
2023-05-01T13:04:29.087Z,4.25
2023-05-01T13:06:57.182Z,4.73
2023-05-01T13:09:27.158Z,4.70
2023-05-01T13:11:58.787Z,5.30
2023-05-01T13:14:26.498Z,7.23
2023-05-01T13:16:54.833Z,5.13
2023-05-01T13:19:28.919Z,5.85
2023-05-01T13:21:58.104Z,4.32
2023-05-01T13:24:26.692Z,7.57
2023-05-01T13:26:59.538Z,7.57
2023-05-01T13:29:27.114Z,6.78
2023-05-01T13:31:55.129Z,4.90
2023-05-01T13:34:30.479Z,4.68
2023-05-01T13:36:58.472Z,2.08
2023-05-01T13:39:26.168Z,4.87
2023-05-01T13:41:53.919Z,3.20
2023-05-01T13:44:21.936Z,6.57
2023-05-01T13:46:51.267Z,3.38
2023-05-01T13:49:19.023Z,4.50
2023-05-01T13:51:47.502Z,6.47
2023-05-01T13:54:15.304Z,3.17
2023-05-01T13:56:43.195Z,4.27
2023-05-01T13:59:10.894Z,1.50
2023-05-01T14:01:43.130Z,3.85
2023-05-01T14:04:11.746Z,3.83
2023-05-01T14:06:43.586Z,3.40
2023-05-01T14:09:11.314Z,4.13
2023-05-01T14:11:46.856Z,4.88
2023-05-01T14:14:17.768Z,4.05
2023-05-01T14:16:49.060Z,28.20
2023-05-01T14:19:20.269Z,7.25
2023-05-01T14:21:47.821Z,4.33
2023-05-01T14:24:18.267Z,8.82
2023-05-01T14:26:46.216Z,6.35
2023-05-01T14:29:18.153Z,6.37
2023-05-01T14:31:45.896Z,15.57
2023-05-01T14:34:13.694Z,8.50
2023-05-01T14:36:43.568Z,9.40
2023-05-01T14:39:13.418Z,8.60
2023-05-01T14:41:41.486Z,9.55
2023-05-01T14:44:12.942Z,7.53
2023-05-01T14:46:46.369Z,7.13
2023-05-01T14:49:21.864Z,7.20
2023-05-01T14:51:49.461Z,11.50
2023-05-01T14:54:17.211Z,7.67
2023-05-01T14:56:44.914Z,8.73
2023-05-01T14:59:13.614Z,10.65
2023-05-01T15:01:41.477Z,9.00
2023-05-01T15:04:11.879Z,10.43
2023-05-01T15:06:39.655Z,9.63
2023-05-01T15:09:07.365Z,9.63
2023-05-01T15:11:34.973Z,10.87
2023-05-01T15:14:02.685Z,8.63
2023-05-01T15:16:30.867Z,10.20
2023-05-01T15:18:58.857Z,11.13
2023-05-01T15:21:26.476Z,7.95
2023-05-01T15:23:54.290Z,10.07
2023-05-01T15:26:21.922Z,10.98
2023-05-01T15:28:50.718Z,9.13
2023-05-01T15:31:19.388Z,10.90
2023-05-01T15:33:47.005Z,8.68
2023-05-01T15:36:14.538Z,11.93
2023-05-01T15:38:42.222Z,8.23
2023-05-01T15:41:09.762Z,12.15
2023-05-01T15:43:37.774Z,12.63
2023-05-01T15:46:06.143Z,10.45
2023-05-01T15:48:33.924Z,10.73
2023-05-01T15:51:01.684Z,10.82
2023-05-01T15:53:29.239Z,10.10
2023-05-01T15:55:58.081Z,8.65
2023-05-01T15:58:25.725Z,10.88
2023-05-01T16:00:56.045Z,11.30
2023-05-01T16:03:24.402Z,8.48
2023-05-01T16:05:52.671Z,9.68
2023-05-01T16:08:21.122Z,9.13
2023-05-01T16:10:48.756Z,6.25
2023-05-01T16:13:16.313Z,6.45
2023-05-01T16:15:43.881Z,6.90
2023-05-01T16:18:16.446Z,9.90
2023-05-01T16:20:44.230Z,8.30
2023-05-01T16:23:12.578Z,7.68
2023-05-01T16:25:43.051Z,10.20
2023-05-01T16:28:10.755Z,7.60
2023-05-01T16:30:41.911Z,10.27
2023-05-01T16:33:18.788Z,9.20
2023-05-01T16:35:48.064Z,10.30
2023-05-01T16:38:16.054Z,10.25
2023-05-01T16:40:44.052Z,12.07
2023-05-01T16:43:11.652Z,11.35
2023-05-01T16:45:39.277Z,9.77
2023-05-01T16:48:07.095Z,10.30
2023-05-01T16:50:34.773Z,11.40
2023-05-01T16:53:02.639Z,14.45
2023-05-01T16:55:30.367Z,10.32
2023-05-01T16:57:58.037Z,11.00
2023-05-01T17:00:29.363Z,12.15
2023-05-01T17:02:59.035Z,11.75
2023-05-01T17:05:27.002Z,11.85
2023-05-01T17:07:54.881Z,12.70
2023-05-01T17:10:22.494Z,13.52
2023-05-01T17:12:50.024Z,13.70
2023-05-01T17:15:18.325Z,14.30
2023-05-01T17:17:46.191Z,11.05
2023-05-01T17:20:17.686Z,13.25
2023-05-01T17:22:45.756Z,11.47
2023-05-01T17:25:13.571Z,15.02
2023-05-01T17:27:41.371Z,16.75
2023-05-01T17:30:14.699Z,12.77
2023-05-01T17:32:44.510Z,12.73
2023-05-01T17:35:12.817Z,10.63
2023-05-01T17:37:41.138Z,11.70
2023-05-01T17:40:15.102Z,8.77
2023-05-01T17:42:44.900Z,11.00
2023-05-01T17:45:15.123Z,10.00
2023-05-01T17:47:45.876Z,10.37
2023-05-01T17:50:15.017Z,12.32
2023-05-01T17:53:03.189Z,10.45
2023-05-01T17:55:31.192Z,12.40
2023-05-01T17:58:02.019Z,15.60
2023-05-01T18:00:33.663Z,12.68
2023-05-01T18:03:01.628Z,12.15
2023-05-01T18:05:30.514Z,10.10
2023-05-01T18:08:03.342Z,11.75
2023-05-01T18:10:31.490Z,13.13
2023-05-01T18:13:03.911Z,10.60
2023-05-01T18:15:32.305Z,14.25
2023-05-01T18:18:07.070Z,11.90
2023-05-01T18:20:34.869Z,12.77
2023-05-01T18:23:03.620Z,13.30
2023-05-01T18:25:36.433Z,16.55
2023-05-01T18:28:04.252Z,16.27
2023-05-01T18:30:32.886Z,19.87
2023-05-01T18:33:05.140Z,16.05
2023-05-01T18:35:33.105Z,18.13
2023-05-01T18:38:00.896Z,15.47
2023-05-01T18:40:28.470Z,13.60
2023-05-01T18:42:56.321Z,15.48
2023-05-01T18:45:24.989Z,16.55
2023-05-01T18:47:53.041Z,12.60
2023-05-01T18:50:24.340Z,14.90
2023-05-01T18:52:56.326Z,18.80
2023-05-01T18:55:25.388Z,12.23
2023-05-01T18:58:04.153Z,14.55
2023-05-01T19:00:34.860Z,15.02
2023-05-01T19:03:02.720Z,16.27
2023-05-01T19:05:30.828Z,17.40
2023-05-01T19:08:02.060Z,20.02
2023-05-01T19:10:36.708Z,18.53
2023-05-01T19:13:08.247Z,22.90
2023-05-01T19:15:38.190Z,18.70
2023-05-01T19:18:06.000Z,20.88
2023-05-01T19:20:39.168Z,19.30
2023-05-01T19:23:07.775Z,17.15
2023-05-01T19:25:36.667Z,21.10
2023-05-01T19:28:04.690Z,17.40
2023-05-01T19:30:32.593Z,16.73
2023-05-01T19:33:00.943Z,18.10
2023-05-01T19:35:30.487Z,16.93
2023-05-01T19:37:59.263Z,15.10
2023-05-01T19:40:27.160Z,18.30
2023-05-01T19:42:57.894Z,17.08
2023-05-01T19:45:29.855Z,18.53
2023-05-01T19:47:59.077Z,19.85
2023-05-01T19:50:27.271Z,22.67
2023-05-01T19:53:01.047Z,18.57
2023-05-01T19:55:33.209Z,21.40
2023-05-01T19:58:00.849Z,21.85
2023-05-01T20:00:28.387Z,25.77
2023-05-01T20:02:56.144Z,21.17
2023-05-01T20:05:28.178Z,20.98
2023-05-01T20:07:57.368Z,21.40
2023-05-01T20:10:25.718Z,18.03
2023-05-01T20:12:53.231Z,18.20
2023-05-01T20:15:20.767Z,18.20
2023-05-01T20:17:51.278Z,19.13
2023-05-01T20:20:21.973Z,18.35
2023-05-01T20:22:52.235Z,21.08
2023-05-01T20:25:19.795Z,19.27
2023-05-01T20:27:47.325Z,23.42
2023-05-01T20:30:14.961Z,19.10
2023-05-01T20:32:44.419Z,14.63
2023-05-01T20:35:12.178Z,19.23
2023-05-01T20:37:39.882Z,18.45
2023-05-01T20:40:07.836Z,14.50
2023-05-01T20:42:35.394Z,18.27
2023-05-01T20:45:02.978Z,12.93
2023-05-01T20:47:32.343Z,14.20
2023-05-01T20:50:00.594Z,9.17
2023-05-01T20:52:28.408Z,13.18
2023-05-01T20:54:56.059Z,10.95
2023-05-01T20:57:23.748Z,12.18
2023-05-01T20:59:51.625Z,15.20
2023-05-01T21:02:19.175Z,13.60
2023-05-01T21:04:46.731Z,17.98
2023-05-01T21:07:14.346Z,11.90
2023-05-01T21:09:45.798Z,16.15
2023-05-01T21:12:13.521Z,9.10
2023-05-01T21:14:41.140Z,8.30
2023-05-01T21:17:11.380Z,13.95
2023-05-01T21:19:45.997Z,14.50
2023-05-01T21:22:17.228Z,8.70
2023-05-01T21:24:45.481Z,10.83
2023-05-01T21:27:13.197Z,10.63
2023-05-01T21:29:40.939Z,13.63
2023-05-01T21:32:08.967Z,12.63
2023-05-01T21:34:36.551Z,11.50
2023-05-01T21:37:04.499Z,12.35
2023-05-01T21:39:32.120Z,10.13
2023-05-01T21:41:59.783Z,12.63
2023-05-01T21:44:29.394Z,13.30
2023-05-01T21:46:57.783Z,11.52
2023-05-01T21:49:26.994Z,11.93
2023-05-01T21:51:54.914Z,15.60
2023-05-01T21:54:22.519Z,11.55
2023-05-01T21:56:50.123Z,12.53
2023-05-01T21:59:18.418Z,10.88
2023-05-01T22:01:46.038Z,9.98
2023-05-01T22:04:16.762Z,13.10
2023-05-01T22:06:44.587Z,10.63
2023-05-01T22:09:12.620Z,10.27
2023-05-01T22:11:40.250Z,10.20
2023-05-01T22:14:07.902Z,8.53
2023-05-01T22:16:35.435Z,9.18
2023-05-01T22:19:03.687Z,7.20
2023-05-01T22:21:31.987Z,9.47
2023-05-01T22:23:59.690Z,11.50
2023-05-01T22:26:27.350Z,13.55
2023-05-01T22:28:54.904Z,20.53
2023-05-01T22:31:22.520Z,13.73
2023-05-01T22:33:50.147Z,11.95
2023-05-01T22:36:17.745Z,13.82
2023-05-01T22:38:45.446Z,15.13
2023-05-01T22:41:13.077Z,12.98
2023-05-01T22:43:40.670Z,14.48
2023-05-01T22:46:08.375Z,11.33
2023-05-01T22:48:36.974Z,17.67
2023-05-01T22:51:04.581Z,13.43
2023-05-01T22:53:32.557Z,8.13
2023-05-01T22:56:00.064Z,10.65
2023-05-01T22:58:28.382Z,10.82
2023-05-01T23:00:55.926Z,7.60
2023-05-01T23:03:23.764Z,6.37
2023-05-01T23:05:51.492Z,6.13
2023-05-01T23:08:19.159Z,3.20
2023-05-01T23:10:46.749Z,8.07
2023-05-01T23:13:22.221Z,15.73
2023-05-01T23:15:53.375Z,6.22
2023-05-01T23:18:25.010Z,13.07
2023-05-01T23:20:52.926Z,11.68
2023-05-01T23:23:21.517Z,13.93
2023-05-01T23:25:50.382Z,9.60
2023-05-01T23:28:22.249Z,12.87
2023-05-01T23:30:51.961Z,8.70
2023-05-01T23:33:21.518Z,7.40
2023-05-01T23:35:49.321Z,6.57
2023-05-01T23:38:16.985Z,5.07
2023-05-01T23:40:47.672Z,5.82
2023-05-01T23:43:15.817Z,6.43
2023-05-01T23:45:43.661Z,8.55
2023-05-01T23:48:11.373Z,8.73
2023-05-01T23:50:42.090Z,6.63
2023-05-01T23:53:09.761Z,3.27
2023-05-01T23:55:38.415Z,8.48
2023-05-01T23:58:06.808Z,12.75
